sensor_id;sensor_type;location;lat;lon;timestamp;P1;durP1;ratioP1;P2;durP2;ratioP2
58109;SDS011;58943;50.168;4.410;2023-05-02T11:19:29;7.97;;;2.78;;
58109;SDS011;58943;50.168;4.410;2023-05-02T11:24:55;7.25;;;2.72;;
58109;SDS011;58943;50.168;4.410;2023-05-02T11:30:01;7.15;;;2.90;;
58109;SDS011;58943;50.168;4.410;2023-05-02T11:35:16;9.73;;;2.63;;
58109;SDS011;58943;50.168;4.410;2023-05-02T11:40:08;8.40;;;2.80;;
58109;SDS011;58943;50.168;4.410;2023-05-02T11:42:35;8.60;;;2.70;;
58109;SDS011;58943;50.168;4.410;2023-05-02T11:45:02;5.13;;;2.30;;
58109;SDS011;58943;50.168;4.410;2023-05-02T12:31:19;7.43;;;3.28;;
58109;SDS011;58943;50.168;4.410;2023-05-02T12:33:46;6.60;;;2.65;;
58109;SDS011;58943;50.168;4.410;2023-05-02T12:36:14;8.77;;;3.03;;
58109;SDS011;58943;50.168;4.410;2023-05-02T12:38:46;11.38;;;3.42;;
58109;SDS011;58943;50.168;4.410;2023-05-02T12:41:15;11.32;;;3.58;;
58109;SDS011;58943;50.168;4.410;2023-05-02T12:43:47;10.02;;;3.40;;
58109;SDS011;58943;50.168;4.410;2023-05-02T12:46:15;7.78;;;3.28;;
58109;SDS011;58943;50.168;4.410;2023-05-02T12:48:42;8.73;;;3.42;;
58109;SDS011;58943;50.168;4.410;2023-05-02T12:51:20;7.60;;;3.43;;
58109;SDS011;58943;50.168;4.410;2023-05-02T12:53:47;9.45;;;3.40;;
58109;SDS011;58943;50.168;4.410;2023-05-02T12:56:14;10.85;;;3.67;;
58109;SDS011;58943;50.168;4.410;2023-05-02T13:01:07;7.75;;;2.80;;
58109;SDS011;58943;50.168;4.410;2023-05-02T13:03:34;7.70;;;3.25;;
58109;SDS011;58943;50.168;4.410;2023-05-02T13:06:01;7.15;;;3.88;;
58109;SDS011;58943;50.168;4.410;2023-05-02T13:08:27;9.95;;;3.50;;
58109;SDS011;58943;50.168;4.410;2023-05-02T13:10:54;9.70;;;3.17;;
58109;SDS011;58943;50.168;4.410;2023-05-02T13:13:20;9.40;;;2.90;;
58109;SDS011;58943;50.168;4.410;2023-05-02T13:15:46;9.98;;;3.42;;
58109;SDS011;58943;50.168;4.410;2023-05-02T13:18:13;10.18;;;3.20;;
58109;SDS011;58943;50.168;4.410;2023-05-02T13:20:39;10.63;;;3.38;;
58109;SDS011;58943;50.168;4.410;2023-05-02T13:23:05;10.48;;;3.50;;
58109;SDS011;58943;50.168;4.410;2023-05-02T13:25:33;9.13;;;3.38;;
58109;SDS011;58943;50.168;4.410;2023-05-02T13:28:00;6.93;;;3.30;;
58109;SDS011;58943;50.168;4.410;2023-05-02T13:30:27;7.53;;;3.38;;
58109;SDS011;58943;50.168;4.410;2023-05-02T13:32:55;8.88;;;3.60;;
58109;SDS011;58943;50.168;4.410;2023-05-02T13:35:24;9.57;;;3.75;;
58109;SDS011;58943;50.168;4.410;2023-05-02T13:37:50;13.75;;;4.00;;
58109;SDS011;58943;50.168;4.410;2023-05-02T13:40:17;10.20;;;3.95;;
58109;SDS011;58943;50.168;4.410;2023-05-02T13:42:45;11.15;;;3.92;;
58109;SDS011;58943;50.168;4.410;2023-05-02T13:45:13;11.63;;;3.75;;
58109;SDS011;58943;50.168;4.410;2023-05-02T13:47:40;7.72;;;3.22;;
58109;SDS011;58943;50.168;4.410;2023-05-02T13:50:07;7.28;;;3.30;;
58109;SDS011;58943;50.168;4.410;2023-05-02T13:52:34;10.73;;;3.53;;
58109;SDS011;58943;50.168;4.410;2023-05-02T13:55:00;9.25;;;3.53;;
58109;SDS011;58943;50.168;4.410;2023-05-02T13:57:27;14.05;;;3.92;;
58109;SDS011;58943;50.168;4.410;2023-05-02T13:59:53;10.05;;;3.58;;
58109;SDS011;58943;50.168;4.410;2023-05-02T14:02:20;9.70;;;3.83;;
58109;SDS011;58943;50.168;4.410;2023-05-02T14:04:51;12.23;;;3.70;;
58109;SDS011;58943;50.168;4.410;2023-05-02T14:07:18;10.33;;;3.70;;
58109;SDS011;58943;50.168;4.410;2023-05-02T14:09:45;8.38;;;3.35;;
58109;SDS011;58943;50.168;4.410;2023-05-02T14:12:12;12.15;;;3.10;;
58109;SDS011;58943;50.168;4.410;2023-05-02T14:14:40;8.55;;;3.40;;
58109;SDS011;58943;50.168;4.410;2023-05-02T14:17:06;8.02;;;3.33;;
58109;SDS011;58943;50.168;4.410;2023-05-02T14:19:33;9.38;;;3.55;;
58109;SDS011;58943;50.168;4.410;2023-05-02T14:22:00;9.20;;;3.58;;
58109;SDS011;58943;50.168;4.410;2023-05-02T14:24:26;7.15;;;3.53;;
58109;SDS011;58943;50.168;4.410;2023-05-02T14:26:52;8.30;;;3.20;;
58109;SDS011;58943;50.168;4.410;2023-05-02T14:29:19;7.82;;;3.80;;
58109;SDS011;58943;50.168;4.410;2023-05-02T14:31:45;6.70;;;3.03;;
58109;SDS011;58943;50.168;4.410;2023-05-02T14:34:11;10.25;;;3.70;;
58109;SDS011;58943;50.168;4.410;2023-05-02T14:36:38;6.63;;;3.28;;
58109;SDS011;58943;50.168;4.410;2023-05-02T14:39:04;7.35;;;3.17;;
58109;SDS011;58943;50.168;4.410;2023-05-02T14:41:31;5.90;;;3.30;;
58109;SDS011;58943;50.168;4.410;2023-05-02T14:43:57;7.90;;;3.10;;
58109;SDS011;58943;50.168;4.410;2023-05-02T14:46:23;8.85;;;3.55;;
58109;SDS011;58943;50.168;4.410;2023-05-02T14:48:50;7.15;;;3.22;;
58109;SDS011;58943;50.168;4.410;2023-05-02T14:51:16;9.18;;;3.30;;
58109;SDS011;58943;50.168;4.410;2023-05-02T14:53:43;6.28;;;3.28;;
58109;SDS011;58943;50.168;4.410;2023-05-02T14:56:12;10.75;;;3.15;;
58109;SDS011;58943;50.168;4.410;2023-05-02T14:58:40;7.80;;;3.38;;
58109;SDS011;58943;50.168;4.410;2023-05-02T15:01:13;6.43;;;3.50;;
58109;SDS011;58943;50.168;4.410;2023-05-02T15:03:42;4.70;;;2.85;;
58109;SDS011;58943;50.168;4.410;2023-05-02T15:06:10;6.10;;;3.30;;
58109;SDS011;58943;50.168;4.410;2023-05-02T15:08:37;4.78;;;3.00;;
58109;SDS011;58943;50.168;4.410;2023-05-02T15:11:03;5.18;;;3.30;;
58109;SDS011;58943;50.168;4.410;2023-05-02T15:13:30;7.15;;;2.80;;
58109;SDS011;58943;50.168;4.410;2023-05-02T15:15:57;6.28;;;3.10;;
58109;SDS011;58943;50.168;4.410;2023-05-02T15:18:23;7.28;;;3.20;;
58109;SDS011;58943;50.168;4.410;2023-05-02T15:20:50;6.07;;;3.13;;
58109;SDS011;58943;50.168;4.410;2023-05-02T15:23:16;6.68;;;3.08;;
58109;SDS011;58943;50.168;4.410;2023-05-02T15:25:42;7.13;;;2.90;;
58109;SDS011;58943;50.168;4.410;2023-05-02T15:28:08;3.95;;;2.78;;
58109;SDS011;58943;50.168;4.410;2023-05-02T15:30:35;7.20;;;3.08;;
58109;SDS011;58943;50.168;4.410;2023-05-02T15:33:01;5.78;;;2.80;;
58109;SDS011;58943;50.168;4.410;2023-05-02T15:35:28;7.07;;;3.58;;
58109;SDS011;58943;50.168;4.410;2023-05-02T15:37:54;4.63;;;2.63;;
58109;SDS011;58943;50.168;4.410;2023-05-02T15:40:26;5.50;;;2.88;;
58109;SDS011;58943;50.168;4.410;2023-05-02T15:42:54;4.95;;;2.97;;
58109;SDS011;58943;50.168;4.410;2023-05-02T15:45:20;5.25;;;2.90;;
58109;SDS011;58943;50.168;4.410;2023-05-02T15:47:47;5.35;;;2.58;;
58109;SDS011;58943;50.168;4.410;2023-05-02T15:50:14;4.90;;;3.08;;
58109;SDS011;58943;50.168;4.410;2023-05-02T15:52:41;6.15;;;2.53;;
58109;SDS011;58943;50.168;4.410;2023-05-02T15:55:07;9.25;;;2.40;;
58109;SDS011;58943;50.168;4.410;2023-05-02T15:57:34;5.07;;;2.60;;
58109;SDS011;58943;50.168;4.410;2023-05-02T16:00:00;3.78;;;2.60;;
58109;SDS011;58943;50.168;4.410;2023-05-02T16:02:27;6.25;;;2.30;;
58109;SDS011;58943;50.168;4.410;2023-05-02T16:04:53;3.15;;;2.30;;
58109;SDS011;58943;50.168;4.410;2023-05-02T16:07:20;4.90;;;2.58;;
58109;SDS011;58943;50.168;4.410;2023-05-02T16:09:46;4.90;;;2.90;;
58109;SDS011;58943;50.168;4.410;2023-05-02T16:12:12;4.95;;;3.10;;
58109;SDS011;58943;50.168;4.410;2023-05-02T16:14:39;6.50;;;2.65;;
58109;SDS011;58943;50.168;4.410;2023-05-02T16:17:05;6.45;;;2.65;;
58109;SDS011;58943;50.168;4.410;2023-05-02T16:22:23;3.53;;;2.50;;
58109;SDS011;58943;50.168;4.410;2023-05-02T16:24:51;5.15;;;2.60;;
58109;SDS011;58943;50.168;4.410;2023-05-02T16:27:18;4.47;;;2.72;;
58109;SDS011;58943;50.168;4.410;2023-05-02T16:29:44;11.98;;;2.97;;
58109;SDS011;58943;50.168;4.410;2023-05-02T16:32:11;3.55;;;2.47;;
58109;SDS011;58943;50.168;4.410;2023-05-02T16:34:37;4.20;;;2.38;;
58109;SDS011;58943;50.168;4.410;2023-05-02T16:37:04;4.38;;;2.35;;
58109;SDS011;58943;50.168;4.410;2023-05-02T16:39:31;6.38;;;2.38;;
58109;SDS011;58943;50.168;4.410;2023-05-02T16:41:58;3.70;;;2.65;;
58109;SDS011;58943;50.168;4.410;2023-05-02T16:44:24;3.90;;;2.10;;
58109;SDS011;58943;50.168;4.410;2023-05-02T16:46:51;5.38;;;2.65;;
58109;SDS011;58943;50.168;4.410;2023-05-02T16:49:17;4.80;;;2.58;;
58109;SDS011;58943;50.168;4.410;2023-05-02T16:51:43;6.60;;;2.35;;
58109;SDS011;58943;50.168;4.410;2023-05-02T16:54:13;5.28;;;2.50;;
58109;SDS011;58943;50.168;4.410;2023-05-02T16:56:39;3.60;;;2.17;;
58109;SDS011;58943;50.168;4.410;2023-05-02T16:59:05;4.03;;;2.33;;
58109;SDS011;58943;50.168;4.410;2023-05-02T17:01:33;4.75;;;2.60;;
58109;SDS011;58943;50.168;4.410;2023-05-02T17:03:59;5.20;;;2.35;;
58109;SDS011;58943;50.168;4.410;2023-05-02T17:06:25;4.43;;;1.95;;
58109;SDS011;58943;50.168;4.410;2023-05-02T17:08:52;3.72;;;2.13;;
58109;SDS011;58943;50.168;4.410;2023-05-02T17:11:18;4.20;;;2.40;;
58109;SDS011;58943;50.168;4.410;2023-05-02T17:13:46;3.45;;;2.10;;
58109;SDS011;58943;50.168;4.410;2023-05-02T17:16:14;4.15;;;2.15;;
58109;SDS011;58943;50.168;4.410;2023-05-02T17:18:42;4.72;;;2.45;;
58109;SDS011;58943;50.168;4.410;2023-05-02T17:21:09;3.97;;;2.45;;
58109;SDS011;58943;50.168;4.410;2023-05-02T17:23:36;2.70;;;1.77;;
58109;SDS011;58943;50.168;4.410;2023-05-02T17:26:02;5.75;;;2.20;;
58109;SDS011;58943;50.168;4.410;2023-05-02T17:28:36;5.38;;;2.35;;
58109;SDS011;58943;50.168;4.410;2023-05-02T17:31:03;4.63;;;2.40;;
58109;SDS011;58943;50.168;4.410;2023-05-02T17:33:30;4.05;;;1.98;;
58109;SDS011;58943;50.168;4.410;2023-05-02T17:35:56;4.47;;;2.25;;
58109;SDS011;58943;50.168;4.410;2023-05-02T17:38:23;3.83;;;2.20;;
58109;SDS011;58943;50.168;4.410;2023-05-02T17:40:50;3.10;;;2.03;;
58109;SDS011;58943;50.168;4.410;2023-05-02T17:43:17;3.30;;;1.88;;
58109;SDS011;58943;50.168;4.410;2023-05-02T17:45:43;4.47;;;2.13;;
58109;SDS011;58943;50.168;4.410;2023-05-02T17:48:10;4.70;;;1.98;;
58109;SDS011;58943;50.168;4.410;2023-05-02T17:50:36;5.55;;;2.15;;
58109;SDS011;58943;50.168;4.410;2023-05-02T17:53:03;4.03;;;2.25;;
58109;SDS011;58943;50.168;4.410;2023-05-02T17:55:30;4.03;;;2.13;;
58109;SDS011;58943;50.168;4.410;2023-05-02T17:57:57;5.68;;;1.95;;
58109;SDS011;58943;50.168;4.410;2023-05-02T18:00:24;4.15;;;2.10;;
58109;SDS011;58943;50.168;4.410;2023-05-02T18:02:50;3.55;;;2.10;;
58109;SDS011;58943;50.168;4.410;2023-05-02T18:05:17;3.75;;;2.17;;
58109;SDS011;58943;50.168;4.410;2023-05-02T18:07:43;3.97;;;2.00;;
58109;SDS011;58943;50.168;4.410;2023-05-02T18:10:10;2.60;;;1.98;;
58109;SDS011;58943;50.168;4.410;2023-05-02T18:12:37;3.85;;;1.85;;
58109;SDS011;58943;50.168;4.410;2023-05-02T18:15:03;3.47;;;2.00;;
58109;SDS011;58943;50.168;4.410;2023-05-02T18:17:30;3.47;;;2.15;;
58109;SDS011;58943;50.168;4.410;2023-05-02T18:19:56;3.63;;;2.08;;
58109;SDS011;58943;50.168;4.410;2023-05-02T18:22:23;2.80;;;1.88;;
58109;SDS011;58943;50.168;4.410;2023-05-02T18:24:49;4.57;;;2.10;;
58109;SDS011;58943;50.168;4.410;2023-05-02T18:27:17;3.42;;;1.80;;
58109;SDS011;58943;50.168;4.410;2023-05-02T18:29:43;3.72;;;2.55;;
58109;SDS011;58943;50.168;4.410;2023-05-02T18:32:10;2.88;;;1.60;;
58109;SDS011;58943;50.168;4.410;2023-05-02T18:34:37;3.25;;;1.90;;
58109;SDS011;58943;50.168;4.410;2023-05-02T18:37:03;3.38;;;2.00;;
58109;SDS011;58943;50.168;4.410;2023-05-02T18:39:30;4.05;;;2.08;;
58109;SDS011;58943;50.168;4.410;2023-05-02T18:41:57;3.17;;;1.70;;
58109;SDS011;58943;50.168;4.410;2023-05-02T18:44:23;2.30;;;1.75;;
58109;SDS011;58943;50.168;4.410;2023-05-02T18:46:49;3.72;;;1.98;;
58109;SDS011;58943;50.168;4.410;2023-05-02T18:49:16;2.92;;;1.90;;
58109;SDS011;58943;50.168;4.410;2023-05-02T18:51:42;2.25;;;1.80;;
58109;SDS011;58943;50.168;4.410;2023-05-02T18:54:08;3.13;;;1.98;;
58109;SDS011;58943;50.168;4.410;2023-05-02T18:56:34;4.75;;;1.75;;
58109;SDS011;58943;50.168;4.410;2023-05-02T18:59:01;1.95;;;1.70;;
58109;SDS011;58943;50.168;4.410;2023-05-02T19:01:27;2.85;;;1.70;;
58109;SDS011;58943;50.168;4.410;2023-05-02T19:03:53;3.05;;;1.85;;
58109;SDS011;58943;50.168;4.410;2023-05-02T19:06:19;3.38;;;2.08;;
58109;SDS011;58943;50.168;4.410;2023-05-02T19:08:46;3.63;;;2.15;;
58109;SDS011;58943;50.168;4.410;2023-05-02T19:11:12;3.03;;;1.75;;
58109;SDS011;58943;50.168;4.410;2023-05-02T19:13:38;3.80;;;1.95;;
58109;SDS011;58943;50.168;4.410;2023-05-02T19:16:08;3.17;;;2.10;;
58109;SDS011;58943;50.168;4.410;2023-05-02T19:18:35;3.03;;;2.00;;
58109;SDS011;58943;50.168;4.410;2023-05-02T19:21:11;2.65;;;1.80;;
58109;SDS011;58943;50.168;4.410;2023-05-02T19:23:39;3.55;;;1.90;;
58109;SDS011;58943;50.168;4.410;2023-05-02T19:26:08;3.95;;;1.95;;
58109;SDS011;58943;50.168;4.410;2023-05-02T19:28:35;2.35;;;1.80;;
58109;SDS011;58943;50.168;4.410;2023-05-02T19:31:06;3.38;;;1.92;;
58109;SDS011;58943;50.168;4.410;2023-05-02T19:33:32;3.00;;;1.80;;
58109;SDS011;58943;50.168;4.410;2023-05-02T19:35:59;3.13;;;2.08;;
58109;SDS011;58943;50.168;4.410;2023-05-02T19:38:25;2.78;;;1.90;;
58109;SDS011;58943;50.168;4.410;2023-05-02T19:40:51;2.47;;;1.95;;
58109;SDS011;58943;50.168;4.410;2023-05-02T19:43:18;2.50;;;1.70;;
58109;SDS011;58943;50.168;4.410;2023-05-02T19:45:44;3.45;;;2.13;;
58109;SDS011;58943;50.168;4.410;2023-05-02T19:48:10;4.78;;;1.80;;
58109;SDS011;58943;50.168;4.410;2023-05-02T19:50:37;3.55;;;1.88;;
58109;SDS011;58943;50.168;4.410;2023-05-02T19:53:03;3.22;;;1.55;;
58109;SDS011;58943;50.168;4.410;2023-05-02T19:55:29;3.05;;;1.90;;
58109;SDS011;58943;50.168;4.410;2023-05-02T19:57:56;4.22;;;2.08;;
58109;SDS011;58943;50.168;4.410;2023-05-02T20:00:24;3.60;;;2.13;;
58109;SDS011;58943;50.168;4.410;2023-05-02T20:02:50;3.85;;;1.90;;
58109;SDS011;58943;50.168;4.410;2023-05-02T20:05:17;3.53;;;2.25;;
58109;SDS011;58943;50.168;4.410;2023-05-02T20:07:43;3.80;;;1.77;;
58109;SDS011;58943;50.168;4.410;2023-05-02T20:10:10;2.70;;;1.98;;
58109;SDS011;58943;50.168;4.410;2023-05-02T20:12:37;2.42;;;1.95;;
58109;SDS011;58943;50.168;4.410;2023-05-02T20:15:03;3.10;;;1.80;;
58109;SDS011;58943;50.168;4.410;2023-05-02T20:17:30;2.50;;;2.00;;
58109;SDS011;58943;50.168;4.410;2023-05-02T20:19:56;2.67;;;1.73;;
58109;SDS011;58943;50.168;4.410;2023-05-02T20:22:23;4.18;;;1.75;;
58109;SDS011;58943;50.168;4.410;2023-05-02T20:24:49;3.50;;;1.67;;
58109;SDS011;58943;50.168;4.410;2023-05-02T20:27:15;2.13;;;1.80;;
58109;SDS011;58943;50.168;4.410;2023-05-02T20:29:42;2.53;;;1.83;;
58109;SDS011;58943;50.168;4.410;2023-05-02T20:32:08;4.57;;;2.00;;
58109;SDS011;58943;50.168;4.410;2023-05-02T20:34:34;2.60;;;1.80;;
58109;SDS011;58943;50.168;4.410;2023-05-02T20:37:03;2.53;;;1.52;;
58109;SDS011;58943;50.168;4.410;2023-05-02T20:39:31;2.50;;;1.60;;
58109;SDS011;58943;50.168;4.410;2023-05-02T20:41:57;2.63;;;1.45;;
58109;SDS011;58943;50.168;4.410;2023-05-02T20:44:23;2.63;;;1.83;;
58109;SDS011;58943;50.168;4.410;2023-05-02T20:49:19;2.70;;;1.70;;
58109;SDS011;58943;50.168;4.410;2023-05-02T20:51:45;2.60;;;1.67;;
58109;SDS011;58943;50.168;4.410;2023-05-02T20:54:11;4.05;;;1.73;;
58109;SDS011;58943;50.168;4.410;2023-05-02T20:56:38;3.45;;;1.88;;
58109;SDS011;58943;50.168;4.410;2023-05-02T20:59:04;2.40;;;1.50;;
58109;SDS011;58943;50.168;4.410;2023-05-02T21:01:31;3.47;;;1.70;;
58109;SDS011;58943;50.168;4.410;2023-05-02T21:03:57;2.33;;;1.73;;
58109;SDS011;58943;50.168;4.410;2023-05-02T21:06:23;2.88;;;1.70;;
58109;SDS011;58943;50.168;4.410;2023-05-02T21:08:50;1.85;;;1.42;;
58109;SDS011;58943;50.168;4.410;2023-05-02T21:11:19;2.40;;;1.55;;
58109;SDS011;58943;50.168;4.410;2023-05-02T21:13:46;2.75;;;1.73;;
58109;SDS011;58943;50.168;4.410;2023-05-02T21:16:18;2.58;;;1.80;;
58109;SDS011;58943;50.168;4.410;2023-05-02T21:18:46;2.60;;;1.60;;
58109;SDS011;58943;50.168;4.410;2023-05-02T21:21:12;1.80;;;1.70;;
58109;SDS011;58943;50.168;4.410;2023-05-02T21:23:39;3.35;;;1.60;;
58109;SDS011;58943;50.168;4.410;2023-05-02T21:26:05;2.88;;;1.90;;
58109;SDS011;58943;50.168;4.410;2023-05-02T21:28:32;3.55;;;1.67;;
58109;SDS011;58943;50.168;4.410;2023-05-02T21:30:59;3.88;;;1.63;;
58109;SDS011;58943;50.168;4.410;2023-05-02T21:33:26;2.85;;;1.92;;
58109;SDS011;58943;50.168;4.410;2023-05-02T21:35:55;2.55;;;1.38;;
58109;SDS011;58943;50.168;4.410;2023-05-02T21:38:25;3.55;;;1.60;;
58109;SDS011;58943;50.168;4.410;2023-05-02T21:40:51;2.97;;;1.90;;
58109;SDS011;58943;50.168;4.410;2023-05-02T21:43:18;3.05;;;1.60;;
58109;SDS011;58943;50.168;4.410;2023-05-02T21:45:45;2.65;;;1.50;;
58109;SDS011;58943;50.168;4.410;2023-05-02T21:48:14;2.15;;;1.75;;
58109;SDS011;58943;50.168;4.410;2023-05-02T21:50:41;3.05;;;1.65;;
58109;SDS011;58943;50.168;4.410;2023-05-02T21:53:08;3.28;;;1.73;;
58109;SDS011;58943;50.168;4.410;2023-05-02T21:55:35;1.98;;;1.40;;
58109;SDS011;58943;50.168;4.410;2023-05-02T21:58:04;2.22;;;1.85;;
58109;SDS011;58943;50.168;4.410;2023-05-02T22:00:30;3.80;;;2.15;;
58109;SDS011;58943;50.168;4.410;2023-05-02T22:02:57;2.35;;;1.70;;
58109;SDS011;58943;50.168;4.410;2023-05-02T22:05:25;3.10;;;1.70;;
58109;SDS011;58943;50.168;4.410;2023-05-02T22:07:52;3.47;;;1.60;;
58109;SDS011;58943;50.168;4.410;2023-05-02T22:10:19;2.70;;;1.70;;
58109;SDS011;58943;50.168;4.410;2023-05-02T22:12:46;3.58;;;1.48;;
58109;SDS011;58943;50.168;4.410;2023-05-02T22:15:12;4.80;;;1.60;;
58109;SDS011;58943;50.168;4.410;2023-05-02T22:17:39;2.40;;;1.50;;
58109;SDS011;58943;50.168;4.410;2023-05-02T22:20:08;2.35;;;1.88;;
58109;SDS011;58943;50.168;4.410;2023-05-02T22:22:36;3.03;;;1.50;;
58109;SDS011;58943;50.168;4.410;2023-05-02T22:25:03;3.38;;;1.70;;
58109;SDS011;58943;50.168;4.410;2023-05-02T22:27:29;2.22;;;1.50;;
58109;SDS011;58943;50.168;4.410;2023-05-02T22:29:56;2.10;;;1.40;;
58109;SDS011;58943;50.168;4.410;2023-05-02T22:32:22;2.33;;;1.70;;
58109;SDS011;58943;50.168;4.410;2023-05-02T22:34:48;3.10;;;1.88;;
58109;SDS011;58943;50.168;4.410;2023-05-02T22:37:14;1.65;;;1.30;;
58109;SDS011;58943;50.168;4.410;2023-05-02T22:39:42;4.22;;;1.80;;
58109;SDS011;58943;50.168;4.410;2023-05-02T22:42:10;2.47;;;1.58;;
58109;SDS011;58943;50.168;4.410;2023-05-02T22:44:36;2.33;;;1.85;;
58109;SDS011;58943;50.168;4.410;2023-05-02T22:47:02;2.35;;;1.60;;
58109;SDS011;58943;50.168;4.410;2023-05-02T22:49:29;3.38;;;1.50;;
58109;SDS011;58943;50.168;4.410;2023-05-02T22:51:57;2.95;;;1.70;;
58109;SDS011;58943;50.168;4.410;2023-05-02T22:54:24;2.83;;;1.60;;
58109;SDS011;58943;50.168;4.410;2023-05-02T22:56:51;2.30;;;1.67;;
58109;SDS011;58943;50.168;4.410;2023-05-02T22:59:17;2.75;;;1.50;;
58109;SDS011;58943;50.168;4.410;2023-05-02T23:01:44;2.78;;;1.70;;
58109;SDS011;58943;50.168;4.410;2023-05-02T23:04:10;2.20;;;1.38;;
58109;SDS011;58943;50.168;4.410;2023-05-02T23:06:36;3.50;;;1.60;;
58109;SDS011;58943;50.168;4.410;2023-05-02T23:09:02;2.78;;;1.90;;
58109;SDS011;58943;50.168;4.410;2023-05-02T23:11:29;3.25;;;1.60;;
58109;SDS011;58943;50.168;4.410;2023-05-02T23:13:55;5.07;;;2.03;;
58109;SDS011;58943;50.168;4.410;2023-05-02T23:16:21;2.33;;;1.65;;
58109;SDS011;58943;50.168;4.410;2023-05-02T23:18:48;2.08;;;1.50;;
58109;SDS011;58943;50.168;4.410;2023-05-02T23:21:15;2.50;;;1.80;;
58109;SDS011;58943;50.168;4.410;2023-05-02T23:23:41;2.15;;;1.70;;
58109;SDS011;58943;50.168;4.410;2023-05-02T23:26:08;2.08;;;1.67;;
58109;SDS011;58943;50.168;4.410;2023-05-02T23:28:35;3.30;;;1.98;;
58109;SDS011;58943;50.168;4.410;2023-05-02T23:31:01;6.68;;;1.73;;
58109;SDS011;58943;50.168;4.410;2023-05-02T23:33:28;2.50;;;1.80;;
58109;SDS011;58943;50.168;4.410;2023-05-02T23:35:55;2.33;;;1.85;;
58109;SDS011;58943;50.168;4.410;2023-05-02T23:38:21;2.70;;;1.90;;
58109;SDS011;58943;50.168;4.410;2023-05-02T23:40:48;2.50;;;1.58;;
58109;SDS011;58943;50.168;4.410;2023-05-02T23:43:15;2.20;;;1.52;;
58109;SDS011;58943;50.168;4.410;2023-05-02T23:45:43;2.30;;;1.67;;
58109;SDS011;58943;50.168;4.410;2023-05-02T23:48:10;3.38;;;2.00;;
58109;SDS011;58943;50.168;4.410;2023-05-02T23:50:36;1.85;;;1.42;;
58109;SDS011;58943;50.168;4.410;2023-05-02T23:53:02;2.28;;;1.75;;
58109;SDS011;58943;50.168;4.410;2023-05-02T23:55:30;2.42;;;1.52;;
58109;SDS011;58943;50.168;4.410;2023-05-02T23:57:57;2.58;;;1.83;;
